createdAt,value
2023-02-28T00:00:11.984Z,4.67
2023-02-28T00:04:15.535Z,4.47
2023-02-28T00:08:16.077Z,4.50
2023-02-28T00:12:17.193Z,3.97
2023-02-28T00:16:20.230Z,4.30
2023-02-28T00:20:24.527Z,4.00
2023-02-28T00:24:24.953Z,4.37
2023-02-28T00:28:25.940Z,3.90
2023-02-28T00:32:26.416Z,4.17
2023-02-28T00:36:29.717Z,4.40
2023-02-28T00:40:30.398Z,4.40
2023-02-28T00:44:30.989Z,4.53
2023-02-28T00:48:32.205Z,4.53
2023-02-28T00:52:35.792Z,4.87
2023-02-28T00:56:36.142Z,4.60
2023-02-28T01:00:38.254Z,4.73
2023-02-28T01:04:38.740Z,4.67
2023-02-28T01:08:42.389Z,4.47
2023-02-28T01:12:43.356Z,4.57
2023-02-28T01:16:44.070Z,5.00
2023-02-28T01:20:44.408Z,4.80
2023-02-28T01:24:48.494Z,5.20
2023-02-28T01:28:49.692Z,4.97
2023-02-28T01:32:51.325Z,5.27
2023-02-28T01:36:52.454Z,5.00
2023-02-28T01:40:56.270Z,5.13
2023-02-28T01:45:06.151Z,4.60
2023-02-28T01:49:13.625Z,4.83
2023-02-28T01:53:22.144Z,4.37
2023-02-28T01:57:38.626Z,4.23
2023-02-28T02:01:39.468Z,4.60
2023-02-28T02:05:42.904Z,4.33
2023-02-28T02:09:43.771Z,5.13
2023-02-28T02:14:16.168Z,4.73
2023-02-28T02:18:34.560Z,4.97
2023-02-28T02:23:22.722Z,5.57
2023-02-28T02:27:40.093Z,4.47
2023-02-28T02:32:03.948Z,4.97
2023-02-28T02:36:17.098Z,5.40
2023-02-28T02:40:23.989Z,5.40
2023-02-28T02:44:30.867Z,5.53
2023-02-28T02:48:38.389Z,5.33
2023-02-28T02:52:49.584Z,6.00
2023-02-28T02:56:54.152Z,5.80
2023-02-28T03:01:01.390Z,5.87
2023-02-28T03:05:07.050Z,5.73
2023-02-28T03:09:10.331Z,5.97
2023-02-28T03:14:00.384Z,6.30
2023-02-28T03:18:12.930Z,6.63
2023-02-28T03:22:33.742Z,6.80
2023-02-28T03:26:45.986Z,6.50
2023-02-28T03:30:55.672Z,6.63
2023-02-28T03:35:07.192Z,6.83
2023-02-28T03:39:13.278Z,6.63
2023-02-28T03:43:24.075Z,5.97
2023-02-28T03:47:34.091Z,6.60
2023-02-28T03:51:37.282Z,7.37
2023-02-28T03:55:43.778Z,6.63
2023-02-28T03:59:52.114Z,6.60
2023-02-28T04:03:54.488Z,6.93
2023-02-28T04:07:55.198Z,7.83
2023-02-28T04:11:57.515Z,7.60
2023-02-28T04:16:00.645Z,7.20
2023-02-28T04:20:01.361Z,7.03
2023-02-28T04:24:02.177Z,7.30
2023-02-28T04:28:02.956Z,7.73
2023-02-28T04:32:06.983Z,7.90
2023-02-28T04:36:12.013Z,7.83
2023-02-28T04:40:15.033Z,8.13
2023-02-28T04:44:15.594Z,8.10
2023-02-28T04:48:20.269Z,8.77
2023-02-28T04:52:22.595Z,8.40
2023-02-28T04:56:23.289Z,8.30
2023-02-28T05:00:24.555Z,8.67
2023-02-28T05:04:29.356Z,9.07
2023-02-28T05:08:31.719Z,7.63
2023-02-28T05:12:32.421Z,8.13
2023-02-28T05:16:33.221Z,8.20
2023-02-28T05:20:36.846Z,8.20
2023-02-28T05:24:37.676Z,8.13
2023-02-28T05:28:38.489Z,21.27
2023-02-28T05:32:39.151Z,10.90
2023-02-28T05:36:43.206Z,10.30
2023-02-28T05:40:44.264Z,8.37
2023-02-28T05:44:44.507Z,8.43
2023-02-28T05:48:49.288Z,8.27
2023-02-28T05:52:53.950Z,9.10
2023-02-28T05:56:56.233Z,9.73
2023-02-28T06:00:56.475Z,9.37
2023-02-28T06:04:56.715Z,9.60
2023-02-28T06:09:01.806Z,9.90
2023-02-28T06:13:04.565Z,10.40
2023-02-28T06:17:05.844Z,9.70
2023-02-28T06:21:06.497Z,9.37
2023-02-28T06:25:11.571Z,10.80
2023-02-28T06:29:12.664Z,11.03
2023-02-28T06:33:13.049Z,10.77
2023-02-28T06:37:14.097Z,10.07
2023-02-28T06:41:17.380Z,10.13
2023-02-28T06:45:17.978Z,9.80
2023-02-28T06:49:19.101Z,9.03
2023-02-28T06:53:19.868Z,10.77
2023-02-28T06:57:23.916Z,11.23
2023-02-28T07:01:25.446Z,10.33
2023-02-28T07:05:26.017Z,12.03
2023-02-28T07:09:31.256Z,11.27
2023-02-28T07:13:35.505Z,11.93
2023-02-28T07:17:36.574Z,9.67
2023-02-28T07:21:37.441Z,9.70
2023-02-28T07:25:37.799Z,8.93
2023-02-28T07:29:41.136Z,9.17
2023-02-28T07:33:42.280Z,8.80
2023-02-28T07:37:43.704Z,8.67
2023-02-28T07:41:44.687Z,9.00
2023-02-28T07:45:48.517Z,9.03
2023-02-28T07:49:50.564Z,8.10
2023-02-28T07:53:51.241Z,8.77
2023-02-28T07:57:51.603Z,8.67
2023-02-28T08:01:55.521Z,8.97
2023-02-28T08:05:56.698Z,8.50
2023-02-28T08:09:57.379Z,8.67
2023-02-28T08:13:59.219Z,7.80
2023-02-28T08:18:03.011Z,7.10
2023-02-28T08:22:03.279Z,6.93
2023-02-28T08:26:06.472Z,7.73
2023-02-28T08:30:08.551Z,6.70
2023-02-28T08:34:15.183Z,7.00
2023-02-28T08:38:15.765Z,6.40
2023-02-28T08:42:16.229Z,6.47
2023-02-28T08:46:18.113Z,6.40
2023-02-28T08:50:21.320Z,6.23
2023-02-28T08:54:22.175Z,6.27
2023-02-28T08:58:22.473Z,6.67
2023-02-28T09:02:22.988Z,6.43
2023-02-28T09:06:29.928Z,6.73
2023-02-28T09:10:30.425Z,6.30
2023-02-28T09:14:32.472Z,7.10
2023-02-28T09:18:34.087Z,6.00
2023-02-28T09:22:37.430Z,7.20
2023-02-28T09:26:42.694Z,7.13
2023-02-28T09:30:52.545Z,6.40
2023-02-28T09:34:53.148Z,6.33
2023-02-28T09:38:58.826Z,6.40
2023-02-28T09:43:03.165Z,6.50
2023-02-28T09:47:18.327Z,7.70
2023-02-28T09:51:45.174Z,6.87
2023-02-28T09:55:54.171Z,7.07
2023-02-28T10:00:11.810Z,7.37
2023-02-28T10:04:32.899Z,6.80
2023-02-28T10:08:43.905Z,6.00
2023-02-28T10:12:51.295Z,6.90
2023-02-28T10:16:59.331Z,6.60
2023-02-28T10:21:01.899Z,6.50
2023-02-28T10:25:06.061Z,6.83
2023-02-28T10:29:13.784Z,6.90
2023-02-28T10:33:26.393Z,6.83
2023-02-28T10:37:27.257Z,6.37
2023-02-28T10:41:37.523Z,6.43
2023-02-28T10:45:41.315Z,6.47
2023-02-28T10:49:50.796Z,6.40
2023-02-28T10:54:01.381Z,6.40
2023-02-28T10:58:04.646Z,6.43
2023-02-28T11:02:36.013Z,6.57
2023-02-28T11:06:40.632Z,6.40
2023-02-28T11:10:44.450Z,6.27
2023-02-28T11:14:55.934Z,6.13
2023-02-28T11:19:02.129Z,6.80
2023-02-28T11:23:10.560Z,6.83
2023-02-28T11:27:48.096Z,7.10
2023-02-28T11:32:05.898Z,6.70
2023-02-28T11:36:21.370Z,7.30
2023-02-28T11:40:29.627Z,6.70
2023-02-28T11:44:47.264Z,7.50
2023-02-28T11:49:10.479Z,7.33
2023-02-28T11:53:31.374Z,7.33
2023-02-28T11:58:05.767Z,7.50
2023-02-28T12:02:35.356Z,7.10
2023-02-28T12:06:46.104Z,7.37
2023-02-28T12:11:10.116Z,7.13
2023-02-28T12:15:43.978Z,8.17
2023-02-28T12:19:57.158Z,7.70
2023-02-28T12:24:43.333Z,7.53
2023-02-28T12:28:57.859Z,7.25
2023-02-28T12:33:06.957Z,7.55
2023-02-28T12:37:20.798Z,8.32
2023-02-28T12:41:30.875Z,7.50
2023-02-28T12:45:49.788Z,7.55
2023-02-28T12:49:59.879Z,8.90
2023-02-28T12:54:16.785Z,8.30
2023-02-28T12:58:32.012Z,8.23
2023-02-28T13:03:31.849Z,7.47
2023-02-28T13:08:13.004Z,7.43
2023-02-28T13:12:21.777Z,7.57
2023-02-28T13:16:23.543Z,7.50
2023-02-28T13:20:27.285Z,7.05
2023-02-28T13:24:53.611Z,7.30
2023-02-28T13:29:09.377Z,7.10
2023-02-28T13:33:31.295Z,7.75
2023-02-28T13:37:46.793Z,7.67
2023-02-28T13:41:56.940Z,7.28
2023-02-28T13:46:19.175Z,7.43
2023-02-28T13:50:29.014Z,7.80
2023-02-28T13:54:51.762Z,7.93
2023-02-28T13:59:06.557Z,7.93
2023-02-28T14:03:37.254Z,7.20
2023-02-28T14:07:55.115Z,7.73
2023-02-28T14:11:58.303Z,7.53
2023-02-28T14:16:11.033Z,7.70
2023-02-28T14:20:21.286Z,7.95
2023-02-28T14:25:12.301Z,7.40
2023-02-28T14:30:23.557Z,6.78
2023-02-28T14:34:54.904Z,7.47
2023-02-28T14:39:01.813Z,8.18
2023-02-28T14:43:05.071Z,7.10
2023-02-28T14:47:10.064Z,8.07
2023-02-28T14:51:17.554Z,8.30
2023-02-28T14:55:24.213Z,8.53
2023-02-28T14:59:36.531Z,8.20
2023-02-28T15:03:40.330Z,7.77
2023-02-28T15:07:44.126Z,8.07
2023-02-28T15:11:49.335Z,7.90
2023-02-28T15:16:03.794Z,8.17
2023-02-28T15:20:08.902Z,8.43
2023-02-28T15:24:25.046Z,8.33
2023-02-28T15:28:28.534Z,8.47
2023-02-28T15:32:33.577Z,8.93
2023-02-28T15:36:41.749Z,8.30
2023-02-28T15:40:54.761Z,8.00
2023-02-28T15:44:55.752Z,8.10
2023-02-28T15:49:00.099Z,8.30
2023-02-28T15:53:00.752Z,8.03
2023-02-28T15:57:10.734Z,8.60
2023-02-28T16:01:23.270Z,8.43
2023-02-28T16:05:33.141Z,9.13
2023-02-28T16:09:35.245Z,8.47
2023-02-28T16:13:38.616Z,8.03
2023-02-28T16:17:42.939Z,8.53
2023-02-28T16:21:43.480Z,8.57
2023-02-28T16:25:48.794Z,8.60
2023-02-28T16:29:52.583Z,8.17
2023-02-28T16:33:53.205Z,8.53
2023-02-28T16:37:56.807Z,8.67
2023-02-28T16:41:57.536Z,8.70
2023-02-28T16:46:02.630Z,8.80
2023-02-28T16:50:03.126Z,8.90
2023-02-28T16:54:03.439Z,9.97
2023-02-28T16:58:06.054Z,9.77
2023-02-28T17:02:16.202Z,11.80
2023-02-28T17:06:24.659Z,10.40
2023-02-28T17:10:28.823Z,10.03
2023-02-28T17:14:29.553Z,11.03
2023-02-28T17:18:34.992Z,13.20
2023-02-28T17:22:35.704Z,14.47
2023-02-28T17:26:36.373Z,13.30
2023-02-28T17:30:38.849Z,12.17
2023-02-28T17:34:42.201Z,13.27
2023-02-28T17:38:42.628Z,11.17
2023-02-28T17:42:43.168Z,16.70
2023-02-28T17:46:44.228Z,14.90
2023-02-28T17:50:47.965Z,13.63
2023-02-28T17:54:48.454Z,12.83
2023-02-28T17:58:49.049Z,13.20
2023-02-28T18:02:50.028Z,13.67
2023-02-28T18:06:53.694Z,13.20
2023-02-28T18:10:54.284Z,13.63
2023-02-28T18:14:54.669Z,16.77
2023-02-28T18:18:55.367Z,17.30
2023-02-28T18:23:01.198Z,13.70
2023-02-28T18:27:02.098Z,15.93
2023-02-28T18:31:09.517Z,13.23
2023-02-28T18:35:12.208Z,14.37
2023-02-28T18:39:16.131Z,12.60
2023-02-28T18:43:16.850Z,12.60
2023-02-28T18:47:17.309Z,12.83
2023-02-28T18:51:20.904Z,14.50
2023-02-28T18:55:24.304Z,15.47
2023-02-28T18:59:24.856Z,16.33
2023-02-28T19:03:25.427Z,14.97
2023-02-28T19:07:25.925Z,15.07
2023-02-28T19:11:29.886Z,14.83
2023-02-28T19:15:30.492Z,14.20
2023-02-28T19:19:31.533Z,14.00
2023-02-28T19:23:34.956Z,13.23
2023-02-28T19:27:38.657Z,12.17
2023-02-28T19:31:39.380Z,11.50
2023-02-28T19:35:39.917Z,11.90
2023-02-28T19:39:44.135Z,11.73
2023-02-28T19:43:47.524Z,11.67
2023-02-28T19:47:47.972Z,11.50
2023-02-28T19:51:48.406Z,12.97
2023-02-28T19:55:52.305Z,12.27
2023-02-28T19:59:55.390Z,12.57
2023-02-28T20:03:56.113Z,13.30
2023-02-28T20:07:56.912Z,12.30
2023-02-28T20:12:00.311Z,13.50
2023-02-28T20:16:09.114Z,12.23
2023-02-28T20:20:12.005Z,12.47
2023-02-28T20:24:13.680Z,12.97
2023-02-28T20:28:14.147Z,15.47
2023-02-28T20:32:17.394Z,14.87
2023-02-28T20:36:20.071Z,15.00
2023-02-28T20:40:20.981Z,13.03
2023-02-28T20:44:21.573Z,14.10
2023-02-28T20:48:24.618Z,14.17
2023-02-28T20:52:26.096Z,13.90
2023-02-28T20:56:27.303Z,15.30
2023-02-28T21:00:28.970Z,15.67
2023-02-28T21:04:32.193Z,15.20
2023-02-28T21:08:33.465Z,14.90
2023-02-28T21:12:33.908Z,16.33
2023-02-28T21:16:37.804Z,16.77
2023-02-28T21:20:41.160Z,16.77
2023-02-28T21:24:42.680Z,16.07
2023-02-28T21:28:44.492Z,17.00
2023-02-28T21:32:45.185Z,15.40
2023-02-28T21:36:49.127Z,15.23
2023-02-28T21:40:51.507Z,14.73
2023-02-28T21:44:52.496Z,16.07
2023-02-28T21:48:53.336Z,18.20
2023-02-28T21:52:56.369Z,16.47
2023-02-28T21:56:59.909Z,14.00
2023-02-28T22:01:09.028Z,14.00
2023-02-28T22:05:10.015Z,13.60
2023-02-28T22:09:13.837Z,13.27
2023-02-28T22:13:14.266Z,14.40
2023-02-28T22:17:14.582Z,13.90
2023-02-28T22:21:17.359Z,12.93
2023-02-28T22:25:20.789Z,13.80
2023-02-28T22:29:22.190Z,13.90
2023-02-28T22:33:22.656Z,15.27
2023-02-28T22:37:23.009Z,14.53
2023-02-28T22:41:27.186Z,15.27
2023-02-28T22:45:27.605Z,14.10
2023-02-28T22:49:28.393Z,14.93
2023-02-28T22:53:29.005Z,14.70
2023-02-28T22:57:32.454Z,14.60
2023-02-28T23:01:36.862Z,13.60
2023-02-28T23:05:37.244Z,14.53
2023-02-28T23:09:37.586Z,13.13
2023-02-28T23:13:40.970Z,14.57
2023-02-28T23:17:42.055Z,13.43
2023-02-28T23:21:42.987Z,13.30
2023-02-28T23:25:44.888Z,15.13
2023-02-28T23:29:48.312Z,14.80
2023-02-28T23:33:48.575Z,14.07
2023-02-28T23:37:49.093Z,14.80
2023-02-28T23:41:50.354Z,15.13
2023-02-28T23:46:01.293Z,14.80
2023-02-28T23:50:01.687Z,14.87
2023-02-28T23:54:04.346Z,15.10
2023-02-28T23:58:05.174Z,15.23
